sensor_id;sensor_type;location;lat;lon;timestamp;P1;durP1;ratioP1;P2;durP2;ratioP2
12367;SDS011;6248;49.812;6.620;2023-07-20T00:00:41;4.50;;;1.88;;
12367;SDS011;6248;49.812;6.620;2023-07-20T00:03:11;2.47;;;1.80;;
12367;SDS011;6248;49.812;6.620;2023-07-20T00:05:41;2.90;;;1.85;;
12367;SDS011;6248;49.812;6.620;2023-07-20T00:08:08;2.58;;;1.80;;
12367;SDS011;6248;49.812;6.620;2023-07-20T00:10:37;4.63;;;2.40;;
12367;SDS011;6248;49.812;6.620;2023-07-20T00:13:04;6.82;;;2.00;;
12367;SDS011;6248;49.812;6.620;2023-07-20T00:15:31;1.95;;;1.73;;
12367;SDS011;6248;49.812;6.620;2023-07-20T00:17:58;1.80;;;1.70;;
12367;SDS011;6248;49.812;6.620;2023-07-20T00:20:26;2.90;;;1.88;;
12367;SDS011;6248;49.812;6.620;2023-07-20T00:22:53;2.75;;;2.35;;
12367;SDS011;6248;49.812;6.620;2023-07-20T00:25:22;3.75;;;2.10;;
12367;SDS011;6248;49.812;6.620;2023-07-20T00:27:51;3.03;;;1.77;;
12367;SDS011;6248;49.812;6.620;2023-07-20T00:30:18;4.32;;;1.80;;
12367;SDS011;6248;49.812;6.620;2023-07-20T00:32:45;3.63;;;2.00;;
12367;SDS011;6248;49.812;6.620;2023-07-20T00:35:12;2.75;;;1.80;;
12367;SDS011;6248;49.812;6.620;2023-07-20T00:37:40;2.55;;;1.77;;
12367;SDS011;6248;49.812;6.620;2023-07-20T00:40:07;2.92;;;1.63;;
12367;SDS011;6248;49.812;6.620;2023-07-20T00:42:34;3.25;;;1.88;;
12367;SDS011;6248;49.812;6.620;2023-07-20T00:45:04;3.20;;;2.00;;
12367;SDS011;6248;49.812;6.620;2023-07-20T00:47:31;5.70;;;1.92;;
12367;SDS011;6248;49.812;6.620;2023-07-20T00:49:59;2.65;;;1.92;;
12367;SDS011;6248;49.812;6.620;2023-07-20T00:52:26;3.22;;;1.83;;
12367;SDS011;6248;49.812;6.620;2023-07-20T00:54:54;3.22;;;2.00;;
12367;SDS011;6248;49.812;6.620;2023-07-20T00:57:21;2.67;;;2.00;;
12367;SDS011;6248;49.812;6.620;2023-07-20T00:59:50;4.25;;;1.85;;
12367;SDS011;6248;49.812;6.620;2023-07-20T01:02:19;3.65;;;2.15;;
12367;SDS011;6248;49.812;6.620;2023-07-20T01:04:46;2.40;;;2.20;;
12367;SDS011;6248;49.812;6.620;2023-07-20T01:07:14;4.18;;;2.20;;
12367;SDS011;6248;49.812;6.620;2023-07-20T01:09:45;4.25;;;2.25;;
12367;SDS011;6248;49.812;6.620;2023-07-20T01:12:16;3.50;;;2.10;;
12367;SDS011;6248;49.812;6.620;2023-07-20T01:14:45;4.05;;;2.25;;
12367;SDS011;6248;49.812;6.620;2023-07-20T01:17:13;1.98;;;1.77;;
12367;SDS011;6248;49.812;6.620;2023-07-20T01:19:41;4.43;;;2.10;;
12367;SDS011;6248;49.812;6.620;2023-07-20T01:22:09;4.20;;;2.10;;
12367;SDS011;6248;49.812;6.620;2023-07-20T01:27:36;3.13;;;2.10;;
12367;SDS011;6248;49.812;6.620;2023-07-20T01:30:10;2.95;;;2.20;;
12367;SDS011;6248;49.812;6.620;2023-07-20T01:32:42;3.60;;;2.20;;
12367;SDS011;6248;49.812;6.620;2023-07-20T01:35:10;2.97;;;2.33;;
12367;SDS011;6248;49.812;6.620;2023-07-20T01:37:39;3.70;;;2.15;;
12367;SDS011;6248;49.812;6.620;2023-07-20T01:40:08;4.75;;;2.30;;
12367;SDS011;6248;49.812;6.620;2023-07-20T01:42:35;2.40;;;2.20;;
12367;SDS011;6248;49.812;6.620;2023-07-20T01:45:03;4.40;;;1.92;;
12367;SDS011;6248;49.812;6.620;2023-07-20T01:47:30;3.78;;;2.15;;
12367;SDS011;6248;49.812;6.620;2023-07-20T01:49:59;3.38;;;2.10;;
12367;SDS011;6248;49.812;6.620;2023-07-20T01:52:26;2.45;;;2.00;;
12367;SDS011;6248;49.812;6.620;2023-07-20T01:54:53;3.70;;;1.95;;
12367;SDS011;6248;49.812;6.620;2023-07-20T01:57:20;2.65;;;2.08;;
12367;SDS011;6248;49.812;6.620;2023-07-20T01:59:47;2.83;;;1.90;;
12367;SDS011;6248;49.812;6.620;2023-07-20T02:02:14;4.15;;;2.10;;
12367;SDS011;6248;49.812;6.620;2023-07-20T02:04:42;3.92;;;2.22;;
12367;SDS011;6248;49.812;6.620;2023-07-20T02:07:10;3.53;;;2.17;;
12367;SDS011;6248;49.812;6.620;2023-07-20T02:09:37;3.92;;;2.10;;
12367;SDS011;6248;49.812;6.620;2023-07-20T02:12:05;3.33;;;2.13;;
12367;SDS011;6248;49.812;6.620;2023-07-20T02:14:32;3.38;;;2.30;;
12367;SDS011;6248;49.812;6.620;2023-07-20T02:16:59;2.75;;;2.30;;
12367;SDS011;6248;49.812;6.620;2023-07-20T02:19:27;6.43;;;2.40;;
12367;SDS011;6248;49.812;6.620;2023-07-20T02:21:54;3.63;;;2.08;;
12367;SDS011;6248;49.812;6.620;2023-07-20T02:24:23;4.18;;;2.25;;
12367;SDS011;6248;49.812;6.620;2023-07-20T02:26:50;4.10;;;2.00;;
12367;SDS011;6248;49.812;6.620;2023-07-20T02:29:18;2.80;;;2.10;;
12367;SDS011;6248;49.812;6.620;2023-07-20T02:31:45;3.05;;;2.08;;
12367;SDS011;6248;49.812;6.620;2023-07-20T02:34:12;4.28;;;2.03;;
12367;SDS011;6248;49.812;6.620;2023-07-20T02:36:39;2.80;;;2.30;;
12367;SDS011;6248;49.812;6.620;2023-07-20T02:39:07;5.07;;;2.42;;
12367;SDS011;6248;49.812;6.620;2023-07-20T02:41:36;2.88;;;2.20;;
12367;SDS011;6248;49.812;6.620;2023-07-20T02:44:04;4.50;;;2.30;;
12367;SDS011;6248;49.812;6.620;2023-07-20T02:46:31;2.20;;;2.00;;
12367;SDS011;6248;49.812;6.620;2023-07-20T02:48:59;4.47;;;2.00;;
12367;SDS011;6248;49.812;6.620;2023-07-20T02:51:26;2.83;;;1.90;;
12367;SDS011;6248;49.812;6.620;2023-07-20T02:53:54;2.28;;;1.90;;
12367;SDS011;6248;49.812;6.620;2023-07-20T02:56:21;2.92;;;2.17;;
12367;SDS011;6248;49.812;6.620;2023-07-20T02:58:49;2.72;;;1.98;;
12367;SDS011;6248;49.812;6.620;2023-07-20T03:01:17;3.60;;;2.20;;
12367;SDS011;6248;49.812;6.620;2023-07-20T03:03:44;3.58;;;2.00;;
12367;SDS011;6248;49.812;6.620;2023-07-20T03:06:12;3.53;;;2.22;;
12367;SDS011;6248;49.812;6.620;2023-07-20T03:08:39;3.78;;;2.10;;
12367;SDS011;6248;49.812;6.620;2023-07-20T03:11:12;3.38;;;1.83;;
12367;SDS011;6248;49.812;6.620;2023-07-20T03:13:40;2.42;;;1.98;;
12367;SDS011;6248;49.812;6.620;2023-07-20T03:16:08;2.50;;;2.08;;
12367;SDS011;6248;49.812;6.620;2023-07-20T03:18:36;2.10;;;1.85;;
12367;SDS011;6248;49.812;6.620;2023-07-20T03:21:05;3.95;;;2.20;;
12367;SDS011;6248;49.812;6.620;2023-07-20T03:23:32;3.88;;;2.38;;
12367;SDS011;6248;49.812;6.620;2023-07-20T03:26:00;5.97;;;2.38;;
12367;SDS011;6248;49.812;6.620;2023-07-20T03:28:27;3.47;;;2.50;;
12367;SDS011;6248;49.812;6.620;2023-07-20T03:30:54;3.63;;;2.30;;
12367;SDS011;6248;49.812;6.620;2023-07-20T03:33:24;2.42;;;2.20;;
12367;SDS011;6248;49.812;6.620;2023-07-20T03:35:52;2.67;;;2.03;;
12367;SDS011;6248;49.812;6.620;2023-07-20T03:38:20;4.15;;;2.22;;
12367;SDS011;6248;49.812;6.620;2023-07-20T03:40:50;2.47;;;2.10;;
12367;SDS011;6248;49.812;6.620;2023-07-20T03:43:17;2.20;;;2.00;;
12367;SDS011;6248;49.812;6.620;2023-07-20T03:45:44;3.08;;;2.28;;
12367;SDS011;6248;49.812;6.620;2023-07-20T03:48:13;3.92;;;2.22;;
12367;SDS011;6248;49.812;6.620;2023-07-20T03:50:41;3.28;;;1.88;;
12367;SDS011;6248;49.812;6.620;2023-07-20T03:53:09;4.22;;;2.20;;
12367;SDS011;6248;49.812;6.620;2023-07-20T03:55:36;2.42;;;2.10;;
12367;SDS011;6248;49.812;6.620;2023-07-20T03:58:03;3.40;;;2.10;;
12367;SDS011;6248;49.812;6.620;2023-07-20T04:00:30;2.55;;;2.15;;
12367;SDS011;6248;49.812;6.620;2023-07-20T04:02:57;5.18;;;2.47;;
12367;SDS011;6248;49.812;6.620;2023-07-20T04:05:25;3.83;;;2.20;;
12367;SDS011;6248;49.812;6.620;2023-07-20T04:07:53;2.50;;;2.00;;
12367;SDS011;6248;49.812;6.620;2023-07-20T04:10:20;2.92;;;2.13;;
12367;SDS011;6248;49.812;6.620;2023-07-20T04:12:47;2.03;;;1.80;;
12367;SDS011;6248;49.812;6.620;2023-07-20T04:15:15;2.30;;;2.00;;
12367;SDS011;6248;49.812;6.620;2023-07-20T04:17:42;3.85;;;2.20;;
12367;SDS011;6248;49.812;6.620;2023-07-20T04:20:09;4.82;;;2.58;;
12367;SDS011;6248;49.812;6.620;2023-07-20T04:22:36;3.15;;;2.40;;
12367;SDS011;6248;49.812;6.620;2023-07-20T04:25:05;2.85;;;2.15;;
12367;SDS011;6248;49.812;6.620;2023-07-20T04:27:32;4.72;;;2.25;;
12367;SDS011;6248;49.812;6.620;2023-07-20T04:29:59;3.15;;;2.13;;
12367;SDS011;6248;49.812;6.620;2023-07-20T04:32:27;6.25;;;2.35;;
12367;SDS011;6248;49.812;6.620;2023-07-20T04:34:55;2.40;;;2.00;;
12367;SDS011;6248;49.812;6.620;2023-07-20T04:37:22;2.97;;;2.35;;
12367;SDS011;6248;49.812;6.620;2023-07-20T04:39:49;4.78;;;2.30;;
12367;SDS011;6248;49.812;6.620;2023-07-20T04:42:18;2.35;;;2.15;;
12367;SDS011;6248;49.812;6.620;2023-07-20T04:44:45;4.65;;;2.20;;
12367;SDS011;6248;49.812;6.620;2023-07-20T04:47:12;3.35;;;2.20;;
12367;SDS011;6248;49.812;6.620;2023-07-20T04:49:39;3.33;;;2.10;;
12367;SDS011;6248;49.812;6.620;2023-07-20T04:52:07;3.83;;;2.20;;
12367;SDS011;6248;49.812;6.620;2023-07-20T04:54:34;3.58;;;2.00;;
12367;SDS011;6248;49.812;6.620;2023-07-20T04:57:01;3.72;;;2.45;;
12367;SDS011;6248;49.812;6.620;2023-07-20T04:59:30;4.60;;;2.30;;
12367;SDS011;6248;49.812;6.620;2023-07-20T05:01:57;4.10;;;2.55;;
12367;SDS011;6248;49.812;6.620;2023-07-20T05:04:24;3.53;;;2.72;;
12367;SDS011;6248;49.812;6.620;2023-07-20T05:06:51;5.28;;;3.03;;
12367;SDS011;6248;49.812;6.620;2023-07-20T05:09:18;7.32;;;2.88;;
12367;SDS011;6248;49.812;6.620;2023-07-20T05:11:46;3.35;;;3.05;;
12367;SDS011;6248;49.812;6.620;2023-07-20T05:14:13;3.33;;;2.72;;
12367;SDS011;6248;49.812;6.620;2023-07-20T05:16:41;4.53;;;2.72;;
12367;SDS011;6248;49.812;6.620;2023-07-20T05:19:08;5.00;;;2.72;;
12367;SDS011;6248;49.812;6.620;2023-07-20T05:21:35;6.43;;;2.72;;
12367;SDS011;6248;49.812;6.620;2023-07-20T05:24:03;3.13;;;2.30;;
12367;SDS011;6248;49.812;6.620;2023-07-20T05:26:30;3.50;;;2.40;;
12367;SDS011;6248;49.812;6.620;2023-07-20T05:28:58;4.50;;;2.58;;
12367;SDS011;6248;49.812;6.620;2023-07-20T05:31:25;3.33;;;2.30;;
12367;SDS011;6248;49.812;6.620;2023-07-20T05:33:57;6.13;;;2.30;;
12367;SDS011;6248;49.812;6.620;2023-07-20T05:36:27;3.63;;;2.00;;
12367;SDS011;6248;49.812;6.620;2023-07-20T05:38:56;3.58;;;2.45;;
12367;SDS011;6248;49.812;6.620;2023-07-20T05:41:23;2.85;;;2.30;;
12367;SDS011;6248;49.812;6.620;2023-07-20T05:43:50;4.40;;;1.95;;
12367;SDS011;6248;49.812;6.620;2023-07-20T05:46:17;4.35;;;2.47;;
12367;SDS011;6248;49.812;6.620;2023-07-20T05:48:44;3.60;;;2.47;;
12367;SDS011;6248;49.812;6.620;2023-07-20T05:51:13;4.63;;;2.33;;
12367;SDS011;6248;49.812;6.620;2023-07-20T05:53:40;3.95;;;2.60;;
12367;SDS011;6248;49.812;6.620;2023-07-20T05:56:07;3.70;;;2.20;;
12367;SDS011;6248;49.812;6.620;2023-07-20T05:58:35;3.08;;;2.60;;
12367;SDS011;6248;49.812;6.620;2023-07-20T06:01:03;9.45;;;2.90;;
12367;SDS011;6248;49.812;6.620;2023-07-20T06:03:31;4.88;;;2.70;;
12367;SDS011;6248;49.812;6.620;2023-07-20T06:05:59;3.10;;;2.47;;
12367;SDS011;6248;49.812;6.620;2023-07-20T06:08:28;5.40;;;2.50;;
12367;SDS011;6248;49.812;6.620;2023-07-20T06:10:55;4.65;;;2.60;;
12367;SDS011;6248;49.812;6.620;2023-07-20T06:13:23;5.45;;;2.70;;
12367;SDS011;6248;49.812;6.620;2023-07-20T06:15:50;3.42;;;2.70;;
12367;SDS011;6248;49.812;6.620;2023-07-20T06:18:18;3.80;;;3.00;;
12367;SDS011;6248;49.812;6.620;2023-07-20T06:20:48;3.25;;;2.92;;
12367;SDS011;6248;49.812;6.620;2023-07-20T06:23:16;4.88;;;3.20;;
12367;SDS011;6248;49.812;6.620;2023-07-20T06:25:44;4.05;;;3.35;;
12367;SDS011;6248;49.812;6.620;2023-07-20T06:28:12;5.07;;;2.70;;
12367;SDS011;6248;49.812;6.620;2023-07-20T06:30:39;4.95;;;3.60;;
12367;SDS011;6248;49.812;6.620;2023-07-20T06:33:06;4.68;;;3.50;;
12367;SDS011;6248;49.812;6.620;2023-07-20T06:35:34;6.13;;;2.70;;
12367;SDS011;6248;49.812;6.620;2023-07-20T06:38:01;3.60;;;2.38;;
12367;SDS011;6248;49.812;6.620;2023-07-20T06:40:28;3.03;;;2.70;;
12367;SDS011;6248;49.812;6.620;2023-07-20T06:42:57;2.40;;;2.20;;
12367;SDS011;6248;49.812;6.620;2023-07-20T06:45:24;3.60;;;2.50;;
12367;SDS011;6248;49.812;6.620;2023-07-20T06:47:51;4.57;;;2.42;;
12367;SDS011;6248;49.812;6.620;2023-07-20T06:50:19;2.65;;;2.35;;
12367;SDS011;6248;49.812;6.620;2023-07-20T06:52:46;2.35;;;2.10;;
12367;SDS011;6248;49.812;6.620;2023-07-20T06:55:13;3.72;;;2.50;;
12367;SDS011;6248;49.812;6.620;2023-07-20T06:57:41;4.13;;;2.70;;
12367;SDS011;6248;49.812;6.620;2023-07-20T07:00:11;2.83;;;2.60;;
12367;SDS011;6248;49.812;6.620;2023-07-20T07:02:38;2.85;;;2.50;;
12367;SDS011;6248;49.812;6.620;2023-07-20T07:05:05;3.55;;;2.78;;
12367;SDS011;6248;49.812;6.620;2023-07-20T07:07:33;4.63;;;2.80;;
12367;SDS011;6248;49.812;6.620;2023-07-20T07:10:00;4.97;;;2.58;;
12367;SDS011;6248;49.812;6.620;2023-07-20T07:12:29;3.85;;;2.40;;
12367;SDS011;6248;49.812;6.620;2023-07-20T07:14:57;2.72;;;2.40;;
12367;SDS011;6248;49.812;6.620;2023-07-20T07:17:26;5.00;;;2.65;;
12367;SDS011;6248;49.812;6.620;2023-07-20T07:19:53;3.88;;;2.50;;
12367;SDS011;6248;49.812;6.620;2023-07-20T07:22:21;2.72;;;2.53;;
12367;SDS011;6248;49.812;6.620;2023-07-20T07:24:48;3.03;;;2.58;;
12367;SDS011;6248;49.812;6.620;2023-07-20T07:27:15;4.28;;;2.88;;
12367;SDS011;6248;49.812;6.620;2023-07-20T07:29:42;3.25;;;2.17;;
12367;SDS011;6248;49.812;6.620;2023-07-20T07:32:10;5.82;;;2.70;;
12367;SDS011;6248;49.812;6.620;2023-07-20T07:34:38;3.03;;;2.20;;
12367;SDS011;6248;49.812;6.620;2023-07-20T07:37:06;6.13;;;2.97;;
12367;SDS011;6248;49.812;6.620;2023-07-20T07:39:33;4.60;;;3.17;;
12367;SDS011;6248;49.812;6.620;2023-07-20T07:42:00;4.50;;;3.10;;
12367;SDS011;6248;49.812;6.620;2023-07-20T07:44:28;2.92;;;2.67;;
12367;SDS011;6248;49.812;6.620;2023-07-20T07:46:55;2.92;;;2.30;;
12367;SDS011;6248;49.812;6.620;2023-07-20T07:49:23;3.88;;;2.42;;
12367;SDS011;6248;49.812;6.620;2023-07-20T07:51:51;4.72;;;2.80;;
12367;SDS011;6248;49.812;6.620;2023-07-20T07:54:18;3.20;;;2.90;;
12367;SDS011;6248;49.812;6.620;2023-07-20T07:56:45;3.35;;;2.70;;
12367;SDS011;6248;49.812;6.620;2023-07-20T07:59:13;3.83;;;3.08;;
12367;SDS011;6248;49.812;6.620;2023-07-20T08:01:40;4.43;;;2.80;;
12367;SDS011;6248;49.812;6.620;2023-07-20T08:04:07;3.53;;;2.90;;
12367;SDS011;6248;49.812;6.620;2023-07-20T08:06:34;3.92;;;2.75;;
12367;SDS011;6248;49.812;6.620;2023-07-20T08:09:03;4.00;;;2.30;;
12367;SDS011;6248;49.812;6.620;2023-07-20T08:11:30;3.30;;;2.60;;
12367;SDS011;6248;49.812;6.620;2023-07-20T08:13:58;3.47;;;2.95;;
12367;SDS011;6248;49.812;6.620;2023-07-20T08:16:26;4.07;;;2.38;;
12367;SDS011;6248;49.812;6.620;2023-07-20T08:18:53;4.65;;;3.08;;
12367;SDS011;6248;49.812;6.620;2023-07-20T08:21:20;3.00;;;2.42;;
12367;SDS011;6248;49.812;6.620;2023-07-20T08:23:47;3.42;;;2.92;;
12367;SDS011;6248;49.812;6.620;2023-07-20T08:26:16;3.40;;;2.95;;
12367;SDS011;6248;49.812;6.620;2023-07-20T08:28:44;2.80;;;2.60;;
12367;SDS011;6248;49.812;6.620;2023-07-20T08:31:13;3.88;;;2.58;;
12367;SDS011;6248;49.812;6.620;2023-07-20T08:33:40;3.97;;;2.38;;
12367;SDS011;6248;49.812;6.620;2023-07-20T08:36:07;2.95;;;2.15;;
12367;SDS011;6248;49.812;6.620;2023-07-20T08:38:34;5.80;;;2.65;;
12367;SDS011;6248;49.812;6.620;2023-07-20T08:41:02;3.67;;;2.17;;
12367;SDS011;6248;49.812;6.620;2023-07-20T08:43:30;5.20;;;2.45;;
12367;SDS011;6248;49.812;6.620;2023-07-20T08:45:58;3.22;;;2.25;;
12367;SDS011;6248;49.812;6.620;2023-07-20T08:48:25;5.20;;;2.35;;
12367;SDS011;6248;49.812;6.620;2023-07-20T08:50:54;3.85;;;2.50;;
12367;SDS011;6248;49.812;6.620;2023-07-20T08:53:22;3.78;;;2.53;;
12367;SDS011;6248;49.812;6.620;2023-07-20T08:55:50;2.75;;;2.33;;
12367;SDS011;6248;49.812;6.620;2023-07-20T08:58:17;3.00;;;2.10;;
12367;SDS011;6248;49.812;6.620;2023-07-20T09:00:46;3.65;;;2.30;;
12367;SDS011;6248;49.812;6.620;2023-07-20T09:03:17;2.20;;;2.10;;
12367;SDS011;6248;49.812;6.620;2023-07-20T09:05:44;4.50;;;2.30;;
12367;SDS011;6248;49.812;6.620;2023-07-20T09:08:12;3.15;;;2.30;;
12367;SDS011;6248;49.812;6.620;2023-07-20T09:10:39;4.13;;;2.05;;
12367;SDS011;6248;49.812;6.620;2023-07-20T09:13:06;2.40;;;1.98;;
12367;SDS011;6248;49.812;6.620;2023-07-20T09:15:33;4.50;;;2.13;;
12367;SDS011;6248;49.812;6.620;2023-07-20T09:18:02;2.92;;;2.10;;
12367;SDS011;6248;49.812;6.620;2023-07-20T09:20:30;6.82;;;2.10;;
12367;SDS011;6248;49.812;6.620;2023-07-20T09:22:58;2.65;;;2.05;;
12367;SDS011;6248;49.812;6.620;2023-07-20T09:25:25;3.15;;;1.83;;
12367;SDS011;6248;49.812;6.620;2023-07-20T09:27:54;3.65;;;1.70;;
12367;SDS011;6248;49.812;6.620;2023-07-20T09:30:24;1.73;;;1.55;;
12367;SDS011;6248;49.812;6.620;2023-07-20T09:32:51;3.20;;;1.95;;
12367;SDS011;6248;49.812;6.620;2023-07-20T09:35:21;3.00;;;1.90;;
12367;SDS011;6248;49.812;6.620;2023-07-20T09:37:49;2.25;;;1.85;;
12367;SDS011;6248;49.812;6.620;2023-07-20T09:40:18;3.85;;;1.85;;
12367;SDS011;6248;49.812;6.620;2023-07-20T09:42:46;4.13;;;2.42;;
12367;SDS011;6248;49.812;6.620;2023-07-20T09:45:13;2.80;;;2.05;;
12367;SDS011;6248;49.812;6.620;2023-07-20T09:47:41;3.38;;;2.10;;
12367;SDS011;6248;49.812;6.620;2023-07-20T09:50:08;4.05;;;2.13;;
12367;SDS011;6248;49.812;6.620;2023-07-20T09:52:41;5.10;;;2.30;;
12367;SDS011;6248;49.812;6.620;2023-07-20T09:55:09;2.88;;;1.63;;
12367;SDS011;6248;49.812;6.620;2023-07-20T09:57:37;2.40;;;1.80;;
12367;SDS011;6248;49.812;6.620;2023-07-20T10:00:05;4.40;;;2.03;;
12367;SDS011;6248;49.812;6.620;2023-07-20T10:02:41;4.57;;;1.80;;
12367;SDS011;6248;49.812;6.620;2023-07-20T10:05:11;5.53;;;2.00;;
12367;SDS011;6248;49.812;6.620;2023-07-20T10:07:43;1.75;;;1.63;;
12367;SDS011;6248;49.812;6.620;2023-07-20T10:10:12;2.88;;;1.70;;
12367;SDS011;6248;49.812;6.620;2023-07-20T10:12:40;3.95;;;1.77;;
12367;SDS011;6248;49.812;6.620;2023-07-20T10:15:10;3.13;;;1.75;;
12367;SDS011;6248;49.812;6.620;2023-07-20T10:17:40;2.25;;;1.40;;
12367;SDS011;6248;49.812;6.620;2023-07-20T10:20:14;1.70;;;1.60;;
12367;SDS011;6248;49.812;6.620;2023-07-20T10:22:44;1.60;;;1.50;;
12367;SDS011;6248;49.812;6.620;2023-07-20T10:25:12;2.78;;;1.50;;
12367;SDS011;6248;49.812;6.620;2023-07-20T10:27:40;3.75;;;1.85;;
12367;SDS011;6248;49.812;6.620;2023-07-20T10:30:07;3.50;;;1.73;;
12367;SDS011;6248;49.812;6.620;2023-07-20T10:32:35;4.13;;;1.63;;
12367;SDS011;6248;49.812;6.620;2023-07-20T10:35:11;1.75;;;1.38;;
12367;SDS011;6248;49.812;6.620;2023-07-20T10:37:53;1.98;;;1.70;;
12367;SDS011;6248;49.812;6.620;2023-07-20T10:40:23;3.75;;;1.50;;
12367;SDS011;6248;49.812;6.620;2023-07-20T10:42:51;2.47;;;1.40;;
12367;SDS011;6248;49.812;6.620;2023-07-20T10:45:32;3.58;;;1.70;;
12367;SDS011;6248;49.812;6.620;2023-07-20T10:48:02;1.88;;;1.58;;
12367;SDS011;6248;49.812;6.620;2023-07-20T10:50:29;3.03;;;1.70;;
12367;SDS011;6248;49.812;6.620;2023-07-20T10:53:11;3.17;;;1.50;;
12367;SDS011;6248;49.812;6.620;2023-07-20T10:55:38;2.03;;;1.50;;
12367;SDS011;6248;49.812;6.620;2023-07-20T10:58:06;2.38;;;1.50;;
12367;SDS011;6248;49.812;6.620;2023-07-20T11:00:34;2.50;;;1.27;;
12367;SDS011;6248;49.812;6.620;2023-07-20T11:03:01;3.72;;;1.15;;
12367;SDS011;6248;49.812;6.620;2023-07-20T11:05:32;2.67;;;1.10;;
12367;SDS011;6248;49.812;6.620;2023-07-20T11:08:00;1.67;;;1.27;;
12367;SDS011;6248;49.812;6.620;2023-07-20T11:10:28;2.03;;;1.60;;
12367;SDS011;6248;49.812;6.620;2023-07-20T11:15:44;3.65;;;1.38;;
12367;SDS011;6248;49.812;6.620;2023-07-20T11:18:12;2.47;;;1.40;;
12367;SDS011;6248;49.812;6.620;2023-07-20T11:20:40;3.22;;;1.60;;
12367;SDS011;6248;49.812;6.620;2023-07-20T11:23:07;1.40;;;0.98;;
12367;SDS011;6248;49.812;6.620;2023-07-20T11:25:38;1.27;;;1.10;;
12367;SDS011;6248;49.812;6.620;2023-07-20T11:28:08;1.10;;;1.10;;
12367;SDS011;6248;49.812;6.620;2023-07-20T11:30:36;1.30;;;1.20;;
12367;SDS011;6248;49.812;6.620;2023-07-20T11:33:04;1.15;;;1.02;;
12367;SDS011;6248;49.812;6.620;2023-07-20T11:35:34;1.92;;;1.10;;
12367;SDS011;6248;49.812;6.620;2023-07-20T11:38:02;1.48;;;1.00;;
12367;SDS011;6248;49.812;6.620;2023-07-20T11:40:29;1.80;;;1.20;;
12367;SDS011;6248;49.812;6.620;2023-07-20T11:42:58;1.20;;;1.10;;
12367;SDS011;6248;49.812;6.620;2023-07-20T11:45:25;3.05;;;1.15;;
12367;SDS011;6248;49.812;6.620;2023-07-20T11:47:58;1.48;;;1.10;;
12367;SDS011;6248;49.812;6.620;2023-07-20T11:50:26;2.63;;;1.20;;
12367;SDS011;6248;49.812;6.620;2023-07-20T11:52:53;3.60;;;1.27;;
12367;SDS011;6248;49.812;6.620;2023-07-20T11:55:21;2.47;;;1.38;;
12367;SDS011;6248;49.812;6.620;2023-07-20T11:58:02;3.60;;;1.30;;
12367;SDS011;6248;49.812;6.620;2023-07-20T12:00:29;2.28;;;1.30;;
12367;SDS011;6248;49.812;6.620;2023-07-20T12:02:57;1.20;;;1.02;;
12367;SDS011;6248;49.812;6.620;2023-07-20T12:05:24;1.35;;;1.25;;
12367;SDS011;6248;49.812;6.620;2023-07-20T12:07:52;2.00;;;1.00;;
12367;SDS011;6248;49.812;6.620;2023-07-20T12:10:23;1.98;;;1.20;;
12367;SDS011;6248;49.812;6.620;2023-07-20T12:12:51;1.08;;;1.00;;
12367;SDS011;6248;49.812;6.620;2023-07-20T12:15:21;2.25;;;1.05;;
12367;SDS011;6248;49.812;6.620;2023-07-20T12:17:49;2.53;;;1.20;;
12367;SDS011;6248;49.812;6.620;2023-07-20T12:20:24;1.30;;;1.20;;
12367;SDS011;6248;49.812;6.620;2023-07-20T12:22:52;1.48;;;1.02;;
12367;SDS011;6248;49.812;6.620;2023-07-20T12:25:19;3.92;;;1.30;;
12367;SDS011;6248;49.812;6.620;2023-07-20T12:27:47;2.95;;;1.17;;
12367;SDS011;6248;49.812;6.620;2023-07-20T12:30:14;1.27;;;1.10;;
12367;SDS011;6248;49.812;6.620;2023-07-20T12:32:43;1.38;;;1.10;;
12367;SDS011;6248;49.812;6.620;2023-07-20T12:35:10;1.58;;;1.10;;
12367;SDS011;6248;49.812;6.620;2023-07-20T12:37:39;1.33;;;1.23;;
12367;SDS011;6248;49.812;6.620;2023-07-20T12:40:07;2.45;;;1.20;;
12367;SDS011;6248;49.812;6.620;2023-07-20T12:42:35;2.03;;;1.40;;
12367;SDS011;6248;49.812;6.620;2023-07-20T12:45:04;1.13;;;1.02;;
12367;SDS011;6248;49.812;6.620;2023-07-20T12:47:31;1.20;;;1.10;;
12367;SDS011;6248;49.812;6.620;2023-07-20T12:50:00;2.15;;;1.25;;
12367;SDS011;6248;49.812;6.620;2023-07-20T12:52:29;1.35;;;1.23;;
12367;SDS011;6248;49.812;6.620;2023-07-20T12:54:56;1.30;;;1.20;;
12367;SDS011;6248;49.812;6.620;2023-07-20T12:57:26;1.73;;;1.27;;
12367;SDS011;6248;49.812;6.620;2023-07-20T12:59:53;1.88;;;1.10;;
12367;SDS011;6248;49.812;6.620;2023-07-20T13:02:20;1.55;;;1.08;;
12367;SDS011;6248;49.812;6.620;2023-07-20T13:04:47;2.33;;;1.27;;
12367;SDS011;6248;49.812;6.620;2023-07-20T13:07:16;2.78;;;1.40;;
12367;SDS011;6248;49.812;6.620;2023-07-20T13:09:43;1.95;;;1.30;;
12367;SDS011;6248;49.812;6.620;2023-07-20T13:12:10;2.97;;;1.10;;
12367;SDS011;6248;49.812;6.620;2023-07-20T13:14:37;1.75;;;1.30;;
12367;SDS011;6248;49.812;6.620;2023-07-20T13:17:05;1.77;;;0.95;;
12367;SDS011;6248;49.812;6.620;2023-07-20T13:19:33;7.47;;;1.35;;
12367;SDS011;6248;49.812;6.620;2023-07-20T13:22:00;1.30;;;1.20;;
12367;SDS011;6248;49.812;6.620;2023-07-20T13:24:29;2.30;;;1.05;;
12367;SDS011;6248;49.812;6.620;2023-07-20T13:26:56;2.15;;;1.05;;
12367;SDS011;6248;49.812;6.620;2023-07-20T13:29:24;3.67;;;1.10;;
12367;SDS011;6248;49.812;6.620;2023-07-20T13:31:51;2.50;;;1.52;;
12367;SDS011;6248;49.812;6.620;2023-07-20T13:34:18;2.85;;;1.38;;
12367;SDS011;6248;49.812;6.620;2023-07-20T13:36:46;3.22;;;1.20;;
12367;SDS011;6248;49.812;6.620;2023-07-20T13:39:13;1.58;;;1.20;;
12367;SDS011;6248;49.812;6.620;2023-07-20T13:41:41;1.23;;;1.15;;
12367;SDS011;6248;49.812;6.620;2023-07-20T13:44:09;1.40;;;1.30;;
12367;SDS011;6248;49.812;6.620;2023-07-20T13:46:36;2.83;;;1.30;;
12367;SDS011;6248;49.812;6.620;2023-07-20T13:49:04;1.67;;;1.15;;
12367;SDS011;6248;49.812;6.620;2023-07-20T13:51:31;2.03;;;1.20;;
12367;SDS011;6248;49.812;6.620;2023-07-20T13:53:58;1.30;;;1.20;;
12367;SDS011;6248;49.812;6.620;2023-07-20T13:56:26;2.88;;;1.58;;
12367;SDS011;6248;49.812;6.620;2023-07-20T13:58:55;1.52;;;1.10;;
12367;SDS011;6248;49.812;6.620;2023-07-20T14:01:22;1.98;;;1.10;;
12367;SDS011;6248;49.812;6.620;2023-07-20T14:03:49;1.92;;;1.40;;
12367;SDS011;6248;49.812;6.620;2023-07-20T14:06:17;2.08;;;1.20;;
12367;SDS011;6248;49.812;6.620;2023-07-20T14:08:44;1.05;;;1.05;;
12367;SDS011;6248;49.812;6.620;2023-07-20T14:11:11;1.25;;;1.15;;
12367;SDS011;6248;49.812;6.620;2023-07-20T14:13:39;1.20;;;1.10;;
12367;SDS011;6248;49.812;6.620;2023-07-20T14:16:07;1.88;;;1.20;;
12367;SDS011;6248;49.812;6.620;2023-07-20T14:18:34;1.20;;;1.20;;
12367;SDS011;6248;49.812;6.620;2023-07-20T14:21:01;1.27;;;1.17;;
12367;SDS011;6248;49.812;6.620;2023-07-20T14:23:30;1.30;;;1.20;;
12367;SDS011;6248;49.812;6.620;2023-07-20T14:25:57;1.23;;;1.13;;
12367;SDS011;6248;49.812;6.620;2023-07-20T14:28:24;1.77;;;1.08;;
12367;SDS011;6248;49.812;6.620;2023-07-20T14:30:51;1.95;;;1.27;;
12367;SDS011;6248;49.812;6.620;2023-07-20T14:33:20;2.97;;;1.10;;
12367;SDS011;6248;49.812;6.620;2023-07-20T14:35:47;1.38;;;1.27;;
12367;SDS011;6248;49.812;6.620;2023-07-20T14:38:14;3.08;;;1.27;;
12367;SDS011;6248;49.812;6.620;2023-07-20T14:40:42;2.30;;;1.25;;
12367;SDS011;6248;49.812;6.620;2023-07-20T14:43:09;1.35;;;1.20;;
12367;SDS011;6248;49.812;6.620;2023-07-20T14:45:39;1.00;;;1.00;;
12367;SDS011;6248;49.812;6.620;2023-07-20T14:48:06;3.28;;;1.40;;
12367;SDS011;6248;49.812;6.620;2023-07-20T14:50:35;1.27;;;1.02;;
12367;SDS011;6248;49.812;6.620;2023-07-20T14:53:02;1.77;;;1.10;;
12367;SDS011;6248;49.812;6.620;2023-07-20T14:55:29;2.40;;;1.20;;
12367;SDS011;6248;49.812;6.620;2023-07-20T14:57:56;1.30;;;1.20;;
12367;SDS011;6248;49.812;6.620;2023-07-20T15:00:23;1.10;;;1.10;;
12367;SDS011;6248;49.812;6.620;2023-07-20T15:02:51;1.48;;;1.20;;
12367;SDS011;6248;49.812;6.620;2023-07-20T15:05:21;1.27;;;1.10;;
12367;SDS011;6248;49.812;6.620;2023-07-20T15:07:49;2.83;;;1.20;;
12367;SDS011;6248;49.812;6.620;2023-07-20T15:10:17;1.08;;;1.08;;